Time;durP1;ratioP1;P1;durP2;ratioP2;P2;SDS_P1;SDS_P2;PMS_P1;PMS_P2;Temp;Humidity;BMP_temperature;BMP_pressure;BME280_temperature;BME280_humidity;BME280_pressure;Samples;Min_cycle;Max_cycle;Signal;HPM_P1;HPM_P2
2024/03/03 00:02:02;;;;;;;14.10;12.90;;;;;;;8.55;79.40;99378.38;5085614;28;20200;-82
2024/03/03 00:04:28;;;;;;;13.80;12.40;;;;;;;8.48;80.02;99371.63;5084771;28;20230;-82
2024/03/03 00:06:54;;;;;;;13.97;12.70;;;;;;;8.40;80.46;99358.81;5084570;28;20213;-81
2024/03/03 00:09:21;;;;;;;14.30;12.37;;;;;;;8.41;79.85;99370.09;5084899;28;20208;-80
2024/03/03 00:11:47;;;;;;;12.80;11.60;;;;;;;8.44;78.26;99386.47;5084407;28;20612;-81
2024/03/03 00:14:14;;;;;;;12.60;11.50;;;;;;;8.47;77.95;99408.94;5076917;28;20197;-81
2024/03/03 00:16:42;;;;;;;14.53;13.03;;;;;;;8.46;77.73;99433.25;5076699;28;20255;-80
2024/03/03 00:19:09;;;;;;;12.97;11.70;;;;;;;8.45;77.76;99434.16;5076722;28;20197;-81
2024/03/03 00:21:35;;;;;;;13.90;12.57;;;;;;;8.46;77.56;99444.53;5076217;28;20209;-81
2024/03/03 00:24:02;;;;;;;14.30;12.60;;;;;;;8.48;77.61;99440.13;5076152;28;20213;-79
2024/03/03 00:26:28;;;;;;;13.47;12.27;;;;;;;8.44;77.79;99443.66;5078460;28;20605;-81
2024/03/03 00:28:55;;;;;;;12.73;11.63;;;;;;;8.33;77.96;99449.13;5073897;28;20257;-81
2024/03/03 00:31:21;;;;;;;13.13;11.87;;;;;;;8.30;77.60;99446.59;5075934;28;20214;-81
2024/03/03 00:33:49;;;;;;;13.83;12.43;;;;;;;8.30;77.96;99451.81;5078881;28;20206;-82
2024/03/03 00:36:15;;;;;;;12.93;11.73;;;;;;;8.34;77.66;99449.97;5078452;28;20225;-82
2024/03/03 00:38:41;;;;;;;13.27;12.07;;;;;;;8.34;78.02;99452.59;5078413;28;20224;-80
2024/03/03 00:41:08;;;;;;;13.43;12.33;;;;;;;8.33;78.17;99450.88;5078548;28;20255;-82
2024/03/03 00:43:35;;;;;;;14.40;13.00;;;;;;;8.27;78.12;99433.69;5079361;28;20193;-79
2024/03/03 00:46:01;;;;;;;14.73;13.33;;;;;;;8.31;78.28;99427.53;5079609;28;20236;-80
2024/03/03 00:48:28;;;;;;;12.90;11.83;;;;;;;8.34;78.53;99431.78;5080080;28;20210;-81
2024/03/03 00:50:56;;;;;;;14.97;13.67;;;;;;;8.21;79.59;99410.47;5079150;28;20684;-82
2024/03/03 00:53:23;;;;;;;15.00;13.53;;;;;;;8.18;80.28;99389.72;5078275;28;20748;-82
2024/03/03 00:55:50;;;;;;;14.30;12.97;;;;;;;8.26;79.29;99382.56;5079362;28;20221;-81
2024/03/03 00:58:17;;;;;;;13.93;12.73;;;;;;;8.22;78.83;99395.72;5079087;28;20206;-82
2024/03/03 01:00:44;;;;;;;14.10;12.77;;;;;;;8.19;79.31;99399.25;5079907;28;20201;-81
2024/03/03 01:03:10;;;;;;;14.90;13.60;;;;;;;8.28;79.35;99395.53;5079738;28;20256;-82
2024/03/03 01:05:37;;;;;;;17.00;15.40;;;;;;;8.33;80.18;99378.94;5078746;28;20703;-82
2024/03/03 01:08:05;;;;;;;17.37;15.77;;;;;;;8.15;81.97;99356.88;5078886;28;20220;-81
2024/03/03 01:10:31;;;;;;;17.57;15.67;;;;;;;8.12;82.39;99317.97;5078767;28;20218;-82
2024/03/03 01:12:57;;;;;;;17.70;16.17;;;;;;;8.22;82.67;99294.31;5079471;28;20208;-82
2024/03/03 01:15:24;;;;;;;17.00;15.30;;;;;;;8.15;83.13;99297.09;5078790;28;20267;-82
2024/03/03 01:17:50;;;;;;;15.43;13.97;;;;;;;8.11;82.96;99271.25;5078908;28;20206;-82
2024/03/03 01:20:16;;;;;;;16.03;14.43;;;;;;;8.13;82.64;99278.09;5079002;28;20667;-82
2024/03/03 01:22:43;;;;;;;16.60;14.50;;;;;;;8.00;83.11;99286.25;5078849;28;20262;-82
2024/03/03 01:25:10;;;;;;;17.40;15.80;;;;;;;8.01;83.50;99278.44;5078547;28;20229;-82
2024/03/03 01:27:37;;;;;;;16.47;15.03;;;;;;;8.01;83.70;99252.44;5076998;28;20260;-79
2024/03/03 01:30:04;;;;;;;18.13;16.37;;;;;;;7.96;85.14;99236.97;5079074;28;20207;-82
2024/03/03 01:32:31;;;;;;;16.50;14.80;;;;;;;8.00;84.19;99242.09;5078887;28;20211;-81
2024/03/03 01:34:57;;;;;;;16.60;15.07;;;;;;;7.97;84.87;99232.66;5078737;28;20257;-80
2024/03/03 01:37:23;;;;;;;18.27;16.53;;;;;;;7.97;85.77;99206.66;5077346;28;20207;-81
2024/03/03 01:39:50;;;;;;;17.90;15.97;;;;;;;8.03;86.23;99190.06;5079220;28;20204;-82
2024/03/03 01:42:18;;;;;;;17.97;16.17;;;;;;;8.01;86.58;99184.88;5079162;28;20205;-81
2024/03/03 01:44:44;;;;;;;18.73;16.20;;;;;;;8.13;86.28;99179.31;5078467;28;20338;-80
2024/03/03 01:47:13;;;;;;;17.90;16.23;;;;;;;8.22;86.30;99172.16;5078235;28;20309;-81
2024/03/03 01:49:40;;;;;;;18.50;16.63;;;;;;;8.26;85.66;99187.59;5078989;28;20201;-81
2024/03/03 01:52:09;;;;;;;18.13;16.27;;;;;;;8.32;85.77;99187.44;5078583;28;20204;-81
2024/03/03 01:54:36;;;;;;;18.30;16.63;;;;;;;8.30;85.72;99199.59;5077590;28;20271;-82
2024/03/03 01:57:09;;;;;;;18.67;16.80;;;;;;;8.29;85.42;99199.69;5078319;28;20215;-81
2024/03/03 01:59:36;;;;;;;19.57;15.87;;;;;;;8.24;84.53;99214.56;5060441;28;20207;-80
2024/03/03 02:02:03;;;;;;;18.13;16.30;;;;;;;8.25;85.04;99211.91;5047304;28;20199;-81
2024/03/03 02:04:30;;;;;;;18.47;16.50;;;;;;;8.21;85.35;99204.25;5047965;28;20218;-81
2024/03/03 02:06:58;;;;;;;16.00;14.53;;;;;;;8.11;83.80;99221.88;5046082;28;20222;-80
2024/03/03 02:09:24;;;;;;;17.00;15.50;;;;;;;8.05;83.42;99250.63;5048562;28;20217;-81
2024/03/03 02:11:50;;;;;;;19.53;16.80;;;;;;;7.96;83.97;99241.31;5049630;28;20194;-81
2024/03/03 02:14:17;;;;;;;21.03;18.93;;;;;;;7.99;84.75;99233.44;5046922;28;20195;-79
2024/03/03 02:16:44;;;;;;;19.17;16.93;;;;;;;8.00;84.92;99231.69;5050335;28;20194;-81
2024/03/03 02:19:11;;;;;;;19.67;16.43;;;;;;;8.02;84.58;99229.91;5047210;28;20201;-81
2024/03/03 02:21:38;;;;;;;18.77;16.97;;;;;;;7.98;84.07;99244.72;5065445;28;20199;-80
2024/03/03 02:24:05;;;;;;;19.73;17.73;;;;;;;7.93;84.81;99254.41;5067223;28;20209;-79
2024/03/03 02:26:31;;;;;;;18.60;16.40;;;;;;;8.01;83.89;99243.78;5066168;28;20235;-81
2024/03/03 02:28:58;;;;;;;17.00;15.50;;;;;;;8.08;83.93;99250.53;5072498;28;20190;-81
2024/03/03 02:31:25;;;;;;;18.87;17.17;;;;;;;8.05;83.08;99267.06;5069443;28;20183;-81
2024/03/03 02:33:51;;;;;;;16.90;15.30;;;;;;;8.01;83.01;99280.16;5068587;28;20224;-80
2024/03/03 02:36:18;;;;;;;18.37;16.23;;;;;;;8.03;82.24;99291.41;5067481;28;20218;-80
2024/03/03 02:38:49;;;;;;;18.13;15.37;;;;;;;7.93;82.31;99304.63;5066108;28;20179;-80
2024/03/03 02:41:15;;;;;;;17.90;16.20;;;;;;;7.92;81.57;99305.50;5066895;28;20198;-80
2024/03/03 02:43:42;;;;;;;18.63;16.90;;;;;;;7.92;82.17;99296.88;5066644;28;20194;-80
2024/03/03 02:46:08;;;;;;;26.10;20.23;;;;;;;7.89;83.79;99277.03;5067728;28;20213;-78
2024/03/03 02:48:35;;;;;;;22.63;20.33;;;;;;;7.93;84.02;99257.00;5066170;28;20179;-81
2024/03/03 02:51:01;;;;;;;26.77;22.00;;;;;;;7.88;84.95;99238.94;5063102;28;20200;-81
2024/03/03 02:53:27;;;;;;;19.73;17.83;;;;;;;7.84;83.79;99245.09;5049921;28;20260;-80
2024/03/03 02:55:55;;;;;;;19.97;17.93;;;;;;;7.76;84.81;99240.09;5047301;28;20273;-81
2024/03/03 02:58:22;;;;;;;18.87;17.17;;;;;;;7.68;85.34;99236.03;5052696;28;20203;-81
2024/03/03 03:00:49;;;;;;;18.50;16.63;;;;;;;7.74;84.39;99231.50;5055814;28;20292;-81
2024/03/03 03:03:15;;;;;;;30.47;22.07;;;;;;;7.76;83.55;99228.88;5047889;28;20231;-82
2024/03/03 03:05:41;;;;;;;21.73;19.37;;;;;;;7.74;84.89;99215.94;5057821;28;20222;-79
2024/03/03 03:08:09;;;;;;;19.70;17.90;;;;;;;7.80;86.05;99208.88;5052636;28;20202;-81
2024/03/03 03:10:35;;;;;;;21.73;19.60;;;;;;;7.79;85.98;99192.44;5046356;28;20220;-81
2024/03/03 03:13:03;;;;;;;23.17;19.07;;;;;;;7.78;86.52;99200.28;5044372;28;20206;-81
2024/03/03 03:15:34;;;;;;;20.00;17.90;;;;;;;7.10;86.78;99202.03;5044749;28;20314;-81
2024/03/03 03:18:00;;;;;;;20.57;18.37;;;;;;;6.89;89.45;99164.50;5052348;28;20232;-81
2024/03/03 03:20:27;;;;;;;23.10;20.23;;;;;;;6.93;90.49;99124.59;5053153;28;20224;-81
2024/03/03 03:22:54;;;;;;;20.47;18.50;;;;;;;7.05;91.44;99089.72;5053873;28;20213;-81
2024/03/03 03:25:20;;;;;;;23.33;19.40;;;;;;;7.21;89.92;99108.31;5053518;28;20592;-81
2024/03/03 03:27:47;;;;;;;23.97;20.00;;;;;;;7.30;89.26;99126.25;5056146;28;20233;-81
2024/03/03 03:30:14;;;;;;;25.27;18.97;;;;;;;7.18;90.06;99121.41;5074876;28;20675;-81
2024/03/03 03:32:41;;;;;;;21.70;19.33;;;;;;;7.26;90.77;99116.84;5075636;28;20671;-81
2024/03/03 03:35:09;;;;;;;20.97;18.60;;;;;;;7.34;88.76;99125.28;5076176;28;20229;-81
2024/03/03 03:37:35;;;;;;;21.77;18.67;;;;;;;7.32;87.07;99156.47;5075944;28;20198;-80
2024/03/03 03:40:03;;;;;;;22.03;17.67;;;;;;;7.34;86.40;99174.59;5074584;28;20210;-81
2024/03/03 03:42:30;;;;;;;19.40;17.50;;;;;;;7.37;85.10;99197.88;5075070;28;20606;-80
2024/03/03 03:44:56;;;;;;;19.13;17.27;;;;;;;7.41;84.49;99222.00;5074618;28;20279;-81
2024/03/03 03:47:24;;;;;;;19.03;17.03;;;;;;;7.42;83.85;99249.69;5074603;28;20379;-81
2024/03/03 03:49:50;;;;;;;20.03;17.83;;;;;;;7.37;83.71;99273.16;5075069;28;20205;-80
2024/03/03 03:52:17;;;;;;;18.67;16.73;;;;;;;7.41;82.70;99287.75;5075536;28;20213;-82
2024/03/03 03:54:43;;;;;;;21.73;17.70;;;;;;;7.40;82.23;99296.44;5075464;28;20229;-80
2024/03/03 03:57:09;;;;;;;17.53;15.77;;;;;;;7.39;82.33;99323.28;5075373;28;20749;-80
2024/03/03 03:59:36;;;;;;;19.63;17.67;;;;;;;7.48;81.69;99327.44;5072349;28;20707;-80
2024/03/03 04:02:03;;;;;;;18.93;17.07;;;;;;;7.38;81.49;99347.56;5079257;28;20202;-80
2024/03/03 04:04:34;;;;;;;20.23;16.80;;;;;;;7.24;81.77;99339.25;5079291;28;20229;-81
2024/03/03 04:07:01;;;;;;;18.67;16.87;;;;;;;7.12;82.66;99335.19;5078452;28;20256;-80
2024/03/03 04:09:28;;;;;;;19.00;17.10;;;;;;;7.13;82.97;99324.75;5078945;28;20236;-80
2024/03/03 04:11:54;;;;;;;20.13;16.00;;;;;;;7.13;82.01;99319.56;5079127;28;20264;-81
2024/03/03 04:14:20;;;;;;;19.23;16.07;;;;;;;7.10;81.61;99334.38;5079711;28;20205;-80
2024/03/03 04:16:47;;;;;;;17.70;16.00;;;;;;;6.98;80.93;99338.09;5079424;28;20210;-80
2024/03/03 04:19:13;;;;;;;20.53;18.40;;;;;;;7.01;83.24;99324.19;5078458;28;20238;-79
2024/03/03 04:21:42;;;;;;;20.30;18.17;;;;;;;6.99;83.66;99302.63;5079345;28;20252;-81
2024/03/03 04:24:08;;;;;;;18.70;16.73;;;;;;;6.99;82.60;99305.22;5078212;28;20212;-81
2024/03/03 04:26:35;;;;;;;19.53;17.00;;;;;;;6.95;82.17;99323.41;5078858;28;20715;-81
2024/03/03 04:29:01;;;;;;;17.70;15.90;;;;;;;6.87;81.95;99330.53;5075482;28;20205;-81
2024/03/03 04:31:27;;;;;;;18.03;16.27;;;;;;;6.83;82.75;99323.69;5079640;28;20268;-80
2024/03/03 04:33:54;;;;;;;17.37;15.87;;;;;;;6.73;84.24;99314.41;5079136;28;20209;-81
2024/03/03 04:36:20;;;;;;;18.43;16.37;;;;;;;6.81;83.46;99296.09;5078661;28;20252;-80
2024/03/03 04:38:48;;;;;;;19.57;17.53;;;;;;;6.59;83.91;99287.94;5077550;28;20556;-81
2024/03/03 04:41:15;;;;;;;17.37;15.67;;;;;;;6.58;83.17;99287.09;5078732;28;20202;-80
2024/03/03 04:43:41;;;;;;;18.20;16.50;;;;;;;6.52;84.17;99289.78;5078498;28;20296;-80
2024/03/03 04:46:08;;;;;;;18.37;16.77;;;;;;;6.56;83.81;99270.69;5078670;28;20888;-79
2024/03/03 04:48:34;;;;;;;18.67;16.87;;;;;;;6.57;83.22;99265.47;5078842;28;20308;-80
2024/03/03 04:51:01;;;;;;;18.50;16.70;;;;;;;6.61;83.58;99273.19;5078848;28;20205;-80
2024/03/03 04:53:27;;;;;;;20.27;17.43;;;;;;;6.57;84.80;99260.28;5078214;28;20628;-80
2024/03/03 04:55:55;;;;;;;19.93;17.77;;;;;;;6.63;84.75;99255.88;5078544;28;20263;-81
2024/03/03 04:58:21;;;;;;;20.17;18.00;;;;;;;6.56;86.41;99231.78;5075071;28;20227;-81
2024/03/03 05:00:48;;;;;;;23.77;19.37;;;;;;;6.56;85.92;99218.84;5078788;28;20667;-81
2024/03/03 05:03:14;;;;;;;20.80;18.67;;;;;;;6.62;86.95;99215.25;5078174;28;20264;-80
2024/03/03 05:05:40;;;;;;;20.63;18.10;;;;;;;6.61;86.92;99205.78;5078388;28;20283;-80
2024/03/03 05:08:07;;;;;;;17.93;16.23;;;;;;;6.58;86.04;99214.50;5077960;28;20811;-81
2024/03/03 05:10:33;;;;;;;19.63;17.63;;;;;;;6.56;85.16;99219.72;5078581;28;20212;-81
2024/03/03 05:13:02;;;;;;;19.73;17.77;;;;;;;6.52;85.68;99219.78;5079019;28;20251;-80
2024/03/03 05:15:29;;;;;;;21.77;17.40;;;;;;;6.49;85.46;99215.53;5078539;28;20221;-80
2024/03/03 05:17:55;;;;;;;20.83;18.43;;;;;;;6.39;86.47;99226.16;5078447;28;20278;-80
2024/03/03 05:20:22;;;;;;;21.07;18.50;;;;;;;6.39;86.89;99208.84;5078791;28;20200;-80
2024/03/03 05:22:48;;;;;;;16.87;15.27;;;;;;;6.37;85.45;99215.81;5078956;28;20257;-81
2024/03/03 05:25:14;;;;;;;18.77;16.87;;;;;;;6.40;84.74;99236.47;5078433;28;20228;-81
2024/03/03 05:27:41;;;;;;;19.23;17.20;;;;;;;6.33;83.67;99258.22;5074932;28;20233;-80
2024/03/03 05:30:09;;;;;;;17.97;16.17;;;;;;;6.42;83.20;99262.34;5078322;28;20205;-80
2024/03/03 05:32:35;;;;;;;18.60;16.80;;;;;;;6.45;83.10;99273.50;5078370;28;20204;-80
2024/03/03 05:35:02;;;;;;;18.83;16.90;;;;;;;6.38;82.93;99286.63;5078099;28;20599;-81
2024/03/03 05:37:28;;;;;;;17.47;15.70;;;;;;;6.29;82.39;99306.66;5077032;28;20675;-81
2024/03/03 05:39:54;;;;;;;16.07;14.57;;;;;;;6.19;81.80;99317.25;5077999;28;20202;-80
2024/03/03 05:42:21;;;;;;;17.13;15.53;;;;;;;6.20;83.17;99321.53;5078336;28;20243;-80
2024/03/03 05:44:47;;;;;;;20.10;16.53;;;;;;;6.28;82.63;99317.06;5087168;28;20225;-81
2024/03/03 05:47:15;;;;;;;19.13;17.13;;;;;;;6.31;82.34;99329.97;5093232;28;20232;-79
2024/03/03 05:49:41;;;;;;;18.03;16.30;;;;;;;6.35;82.00;99337.66;5083499;28;20732;-81
2024/03/03 05:52:08;;;;;;;17.97;15.23;;;;;;;6.35;80.80;99347.16;5078065;28;20344;-80
2024/03/03 05:54:34;;;;;;;16.67;15.07;;;;;;;6.33;81.36;99367.06;5079664;28;20256;-80
2024/03/03 05:57:01;;;;;;;16.77;15.07;;;;;;;6.33;80.92;99377.44;5079078;28;20213;-81
2024/03/03 05:59:28;;;;;;;18.97;16.93;;;;;;;6.29;80.53;99383.56;5074379;28;20630;-81
2024/03/03 06:01:54;;;;;;;20.80;18.23;;;;;;;6.22;83.05;99350.88;5076950;28;20679;-81
2024/03/03 06:04:22;;;;;;;23.40;18.40;;;;;;;6.24;83.94;99323.19;5078917;28;20202;-81
2024/03/03 06:06:48;;;;;;;26.30;19.30;;;;;;;6.23;85.32;99285.22;5076726;28;20229;-81
2024/03/03 06:09:14;;;;;;;27.27;21.00;;;;;;;6.29;86.79;99252.25;5077805;28;20210;-81
2024/03/03 06:11:42;;;;;;;31.47;21.63;;;;;;;6.29;87.74;99215.97;5077428;28;20208;-81
2024/03/03 06:14:08;;;;;;;28.10;21.47;;;;;;;6.30;87.81;99193.50;5077181;28;20206;-81
2024/03/03 06:16:35;;;;;;;26.53;20.87;;;;;;;6.30;87.94;99185.72;5076697;28;20212;-81
2024/03/03 06:19:01;;;;;;;33.03;23.50;;;;;;;6.30;88.89;99172.75;5078139;28;20209;-81
2024/03/03 06:21:29;;;;;;;35.23;23.43;;;;;;;6.29;89.48;99169.31;5078490;28;20204;-82
2024/03/03 06:23:55;;;;;;;31.93;23.07;;;;;;;6.33;89.76;99154.56;5077012;28;20218;-81
2024/03/03 06:26:24;;;;;;;24.57;21.13;;;;;;;6.34;89.05;99162.31;5077122;28;20221;-81
2024/03/03 06:28:51;;;;;;;26.10;20.33;;;;;;;6.29;88.35;99171.91;5073712;28;20245;-80
2024/03/03 06:31:17;;;;;;;24.77;19.93;;;;;;;6.31;87.29;99185.69;5077640;28;20663;-81
2024/03/03 06:33:43;;;;;;;21.77;19.57;;;;;;;6.34;86.83;99193.41;5077594;28;20741;-80
2024/03/03 06:36:16;;;;;;;24.40;19.77;;;;;;;6.35;86.46;99210.66;5076815;28;20272;-80
2024/03/03 06:38:44;;;;;;;26.37;19.03;;;;;;;6.31;85.69;99219.38;5077879;28;20678;-81
2024/03/03 06:41:10;;;;;;;26.97;21.07;;;;;;;6.29;86.40;99213.38;5077232;28;20292;-80
2024/03/03 06:43:37;;;;;;;31.30;22.77;;;;;;;6.31;87.60;99208.16;5078093;28;20210;-81
2024/03/03 06:46:03;;;;;;;30.17;22.97;;;;;;;6.34;88.30;99201.19;5077782;28;20230;-81
2024/03/03 06:48:30;;;;;;;26.00;21.90;;;;;;;6.39;89.22;99185.53;5077688;28;20277;-81
2024/03/03 06:50:57;;;;;;;31.43;24.17;;;;;;;6.40;89.59;99170.81;5077860;28;20254;-80
2024/03/03 06:53:23;;;;;;;30.27;22.63;;;;;;;6.48;90.46;99155.94;5077442;28;20209;-81
2024/03/03 06:55:51;;;;;;;32.37;23.10;;;;;;;6.51;89.67;99145.50;5077367;28;20230;-80
2024/03/03 06:58:17;;;;;;;30.97;24.00;;;;;;;6.55;90.34;99142.81;5076396;28;20223;-79
2024/03/03 07:00:43;;;;;;;34.70;24.07;;;;;;;6.59;91.13;99127.19;5091449;28;20624;-80
2024/03/03 07:05:50;;;;;;;42.70;24.93;;;;;;;6.66;91.97;99106.28;5074730;28;20571;-81
2024/03/03 07:08:16;;;;;;;38.10;26.13;;;;;;;6.66;92.50;99095.91;5076416;28;20703;-80
2024/03/03 07:10:43;;;;;;;37.83;25.00;;;;;;;6.74;92.17;99096.56;5077758;28;20255;-80
2024/03/03 07:13:10;;;;;;;31.73;24.50;;;;;;;6.82;91.38;99098.97;5077700;28;20209;-81
2024/03/03 07:15:37;;;;;;;38.10;25.53;;;;;;;6.83;91.75;99103.25;5077569;28;20226;-80
2024/03/03 07:18:04;;;;;;;33.37;25.27;;;;;;;6.88;91.30;99100.53;5076788;28;20211;-80
2024/03/03 07:20:31;;;;;;;39.57;23.47;;;;;;;6.91;91.77;99100.44;5077172;28;20263;-81
2024/03/03 07:22:57;;;;;;;35.27;25.63;;;;;;;6.92;91.00;99100.41;5076805;28;20251;-80
2024/03/03 07:25:23;;;;;;;33.53;25.07;;;;;;;6.90;91.82;99099.59;5075884;28;20284;-81
2024/03/03 07:27:50;;;;;;;31.10;23.80;;;;;;;6.93;91.99;99102.09;5071387;28;20256;-80
2024/03/03 07:30:18;;;;;;;34.43;25.03;;;;;;;7.00;91.85;99097.63;5076721;28;20730;-80
2024/03/03 07:32:44;;;;;;;36.90;24.87;;;;;;;7.02;92.06;99105.38;5076834;28;20213;-81
2024/03/03 07:35:10;;;;;;;33.80;25.03;;;;;;;7.00;92.55;99094.16;5079725;28;20222;-81
2024/03/03 07:37:37;;;;;;;40.93;26.70;;;;;;;7.02;92.43;99082.88;5075725;28;20199;-80
2024/03/03 07:40:05;;;;;;;43.47;27.47;;;;;;;7.09;92.59;99080.97;5051465;28;20198;-79
2024/03/03 07:42:31;;;;;;;33.60;25.80;;;;;;;7.12;92.32;99076.53;5049796;28;20654;-80
2024/03/03 07:44:57;;;;;;;41.10;26.20;;;;;;;7.20;91.99;99080.69;5051880;28;20222;-81
2024/03/03 07:47:25;;;;;;;38.10;26.90;;;;;;;7.21;91.88;99080.63;5047667;28;20222;-80
2024/03/03 07:49:51;;;;;;;36.80;25.40;;;;;;;7.29;91.21;99083.84;5044595;28;20203;-80
2024/03/03 07:52:18;;;;;;;41.60;27.30;;;;;;;7.30;91.54;99090.75;5045770;28;20575;-81
2024/03/03 07:54:44;;;;;;;37.80;25.37;;;;;;;7.31;91.29;99092.47;5050295;28;20221;-80
2024/03/03 07:57:10;;;;;;;43.30;27.63;;;;;;;7.35;91.82;99101.00;5048529;28;20195;-81
2024/03/03 07:59:37;;;;;;;36.53;26.50;;;;;;;7.38;91.65;99098.34;5059861;28;20613;-81
2024/03/03 08:02:03;;;;;;;42.67;26.70;;;;;;;7.40;91.65;99099.16;5052837;28;20545;-81
2024/03/03 08:04:31;;;;;;;37.13;27.13;;;;;;;7.46;91.53;99114.56;5051286;28;20275;-81
2024/03/03 08:06:58;;;;;;;44.67;27.80;;;;;;;7.48;91.30;99112.78;5048067;28;20303;-79
2024/03/03 08:09:24;;;;;;;40.87;27.13;;;;;;;7.54;90.82;99124.72;5049263;28;20248;-81
2024/03/03 08:11:51;;;;;;;38.37;27.17;;;;;;;7.59;90.48;99125.47;5051417;28;20199;-81
2024/03/03 08:14:17;;;;;;;42.60;27.13;;;;;;;7.69;89.72;99139.91;5049547;28;20194;-80
2024/03/03 08:16:43;;;;;;;36.37;26.73;;;;;;;7.59;91.32;99133.25;5049473;28;20194;-80
2024/03/03 08:19:10;;;;;;;48.07;28.67;;;;;;;7.63;91.04;99128.81;5044321;28;20678;-81
2024/03/03 08:21:37;;;;;;;42.73;28.43;;;;;;;7.67;91.40;99120.03;5043052;28;20203;-81
2024/03/03 08:24:04;;;;;;;41.50;27.77;;;;;;;7.70;91.12;99127.75;5044080;28;20205;-80
2024/03/03 08:26:31;;;;;;;44.53;28.63;;;;;;;7.75;90.85;99115.50;5049904;28;20571;-80
2024/03/03 08:28:57;;;;;;;41.87;29.00;;;;;;;7.76;91.27;99122.38;5056178;28;20222;-81
2024/03/03 08:31:23;;;;;;;40.47;27.33;;;;;;;7.81;91.48;99125.72;5055952;28;20256;-80
2024/03/03 08:33:50;;;;;;;40.37;28.43;;;;;;;7.82;91.67;99123.94;5050416;28;20236;-80
2024/03/03 08:36:16;;;;;;;42.27;28.13;;;;;;;7.82;91.66;99114.41;5048140;28;20596;-81
2024/03/03 08:38:44;;;;;;;49.37;29.30;;;;;;;7.83;92.45;99108.31;5047797;28;20194;-81
2024/03/03 08:41:10;;;;;;;39.73;28.47;;;;;;;7.90;91.61;99114.19;5049289;28;20203;-80
2024/03/03 08:43:36;;;;;;;39.07;27.00;;;;;;;7.91;93.08;99106.34;5047268;28;20203;-81
2024/03/03 08:46:03;;;;;;;44.07;28.03;;;;;;;8.00;91.39;99125.16;5047141;28;20260;-80
2024/03/03 08:48:29;;;;;;;42.33;27.83;;;;;;;8.06;91.05;99137.97;5047336;28;20290;-80
2024/03/03 08:50:56;;;;;;;41.10;27.27;;;;;;;8.12;90.31;99148.19;5047473;28;20329;-80
2024/03/03 08:53:22;;;;;;;38.10;28.07;;;;;;;8.21;90.58;99152.28;5049360;28;20197;-79
2024/03/03 08:55:50;;;;;;;42.70;28.97;;;;;;;8.19;90.78;99146.25;5049790;28;20297;-81
2024/03/03 08:58:19;;;;;;;42.10;28.47;;;;;;;8.29;90.82;99155.47;5053711;28;20217;-81
2024/03/03 09:00:45;;;;;;;47.23;31.80;;;;;;;8.28;91.51;99154.59;5054046;28;20205;-80
2024/03/03 09:03:12;;;;;;;44.97;30.00;;;;;;;8.35;92.52;99122.34;5049410;28;20202;-81
2024/03/03 09:05:38;;;;;;;52.73;31.10;;;;;;;8.45;92.79;99119.50;5047443;28;20219;-81
2024/03/03 09:08:05;;;;;;;41.57;30.30;;;;;;;8.44;91.69;99126.41;5047483;28;20222;-81
2024/03/03 09:10:31;;;;;;;45.90;30.00;;;;;;;8.43;91.25;99129.09;5048808;28;20198;-81
2024/03/03 09:12:59;;;;;;;54.60;33.17;;;;;;;8.39;93.07;99110.09;5047738;28;20199;-80
2024/03/03 09:15:25;;;;;;;48.43;31.77;;;;;;;8.48;92.45;99101.16;5048357;28;20268;-81
2024/03/03 09:17:52;;;;;;;50.47;31.10;;;;;;;8.50;92.42;99107.19;5041063;28;20669;-81
2024/03/03 09:20:18;;;;;;;48.10;32.00;;;;;;;8.54;91.58;99108.78;5043267;28;20199;-80
2024/03/03 09:22:44;;;;;;;47.93;30.83;;;;;;;8.54;93.40;99099.25;5047225;28;20255;-81
2024/03/03 09:25:11;;;;;;;48.30;32.80;;;;;;;8.61;93.09;99076.47;5048462;28;20701;-81
2024/03/03 09:27:40;;;;;;;55.77;34.43;;;;;;;8.65;94.44;99064.22;5050303;28;20683;-80
2024/03/03 09:30:10;;;;;;;56.97;35.70;;;;;;;8.67;94.22;99073.66;5051998;28;20205;-80
2024/03/03 09:32:36;;;;;;;60.23;36.73;;;;;;;8.76;93.72;99059.53;5048520;28;20271;-80
2024/03/03 09:35:06;;;;;;;61.27;38.70;;;;;;;8.81;93.63;99074.97;5049737;28;20222;-81
2024/03/03 09:37:33;;;;;;;64.47;39.37;;;;;;;9.00;92.32;99075.19;5047464;28;20217;-80
2024/03/03 09:39:59;;;;;;;66.53;40.63;;;;;;;9.00;92.35;99082.97;5048247;28;20241;-81
2024/03/03 09:42:26;;;;;;;68.50;43.30;;;;;;;9.09;91.89;99093.09;5049488;28;20198;-81
2024/03/03 09:44:57;;;;;;;67.90;42.43;;;;;;;9.15;91.74;99100.69;5047609;28;20276;-81
2024/03/03 09:47:28;;;;;;;73.87;43.70;;;;;;;9.19;91.64;99104.88;5047467;28;20232;-81
2024/03/03 09:49:56;;;;;;;83.37;47.97;;;;;;;9.28;92.88;99088.09;5049221;28;20218;-82
2024/03/03 09:52:26;;;;;;;78.13;46.30;;;;;;;9.28;92.68;99091.53;5047790;28;20218;-81
2024/03/03 09:54:53;;;;;;;80.93;46.57;;;;;;;9.23;94.99;99063.97;5049047;28;20566;-82
2024/03/03 09:57:20;;;;;;;76.03;45.83;;;;;;;9.24;96.43;99031.84;5048436;28;20250;-80
2024/03/03 09:59:51;;;;;;;80.43;47.97;;;;;;;9.24;96.48;99019.66;5072087;28;20200;-82
2024/03/03 10:02:20;;;;;;;72.80;43.33;;;;;;;9.35;95.86;99011.44;5078679;28;20205;-81
2024/03/03 10:04:48;;;;;;;68.70;41.20;;;;;;;9.45;94.56;99033.63;5079222;28;20287;-81
2024/03/03 10:07:22;;;;;;;64.90;40.70;;;;;;;9.52;94.31;99040.31;5078552;28;20222;-82
2024/03/03 10:09:54;;;;;;;69.10;41.40;;;;;;;9.58;96.29;99009.75;4373443;28;10000739;-82
2024/03/03 10:12:23;;;;;;;63.17;40.37;;;;;;;9.67;96.02;99020.66;5075634;28;20213;-81
2024/03/03 10:14:52;;;;;;;64.40;41.50;;;;;;;9.69;97.45;99005.84;5075605;28;20222;-81
2024/03/03 10:17:18;;;;;;;67.23;41.97;;;;;;;9.72;97.82;98994.44;5075488;28;20270;-82
2024/03/03 10:19:45;;;;;;;67.63;42.23;;;;;;;9.76;99.22;98979.53;5075051;28;20210;-81
2024/03/03 10:22:18;;;;;;;67.60;42.67;;;;;;;9.90;98.75;98969.41;5067767;28;20203;-82
2024/03/03 10:24:44;;;;;;;59.73;39.00;;;;;;;10.03;96.87;98994.06;5035484;28;20235;-80
2024/03/03 10:27:15;;;;;;;56.60;37.67;;;;;;;10.15;97.99;98984.91;5035719;28;20206;-82
2024/03/03 10:29:43;;;;;;;57.10;37.10;;;;;;;10.17;95.50;99019.59;5061874;28;20220;-81
2024/03/03 10:32:10;;;;;;;51.10;37.03;;;;;;;10.21;95.08;99035.94;5074819;28;20218;-81
2024/03/03 10:34:36;;;;;;;59.07;39.33;;;;;;;10.22;95.75;99035.03;5073955;28;20288;-81
2024/03/03 10:37:04;;;;;;;56.77;37.57;;;;;;;10.34;94.41;99047.63;5073906;28;20586;-81
2024/03/03 10:39:33;;;;;;;57.43;37.70;;;;;;;10.37;94.78;99059.72;5074544;28;20204;-80
2024/03/03 10:41:59;;;;;;;59.03;38.23;;;;;;;10.47;94.34;99067.09;5074444;28;20210;-79
2024/03/03 10:44:26;;;;;;;56.03;37.57;;;;;;;10.61;93.22;99081.34;5061937;28;20227;-79
2024/03/03 10:46:52;;;;;;;57.47;37.53;;;;;;;10.71;91.33;99124.41;5054586;28;20315;-81
2024/03/03 10:49:19;;;;;;;57.17;39.10;;;;;;;10.83;91.30;99136.94;5054466;28;20222;-81
2024/03/03 10:51:46;;;;;;;62.37;38.97;;;;;;;10.97;92.12;99132.94;5054662;28;20211;-81
2024/03/03 10:54:12;;;;;;;56.73;39.20;;;;;;;10.89;92.71;99114.97;5054083;28;20210;-81
2024/03/03 10:56:42;;;;;;;52.57;36.83;;;;;;;11.02;91.13;99129.22;5053239;28;20227;-79
2024/03/03 10:59:11;;;;;;;57.33;38.27;;;;;;;11.07;89.96;99169.03;5061981;28;20204;-81
2024/03/03 11:01:38;;;;;;;56.70;37.90;;;;;;;11.06;90.05;99177.78;5073179;28;20208;-81
2024/03/03 11:04:06;;;;;;;58.83;36.63;;;;;;;11.39;91.38;99160.75;5074295;28;20216;-79
2024/03/03 11:06:33;;;;;;;56.63;39.10;;;;;;;11.51;87.04;99218.56;5074192;28;20213;-81
2024/03/03 11:09:01;;;;;;;53.23;37.10;;;;;;;11.65;87.14;99238.03;5063022;28;20602;-81
2024/03/03 11:11:32;;;;;;;52.03;37.17;;;;;;;11.65;85.13;99272.84;5054498;28;20212;-82
2024/03/03 11:14:04;;;;;;;54.77;38.03;;;;;;;11.62;85.03;99296.53;5053981;28;20213;-80
2024/03/03 11:16:31;;;;;;;53.30;37.60;;;;;;;11.56;86.02;99294.16;5053270;28;20213;-81
2024/03/03 11:19:02;;;;;;;50.23;35.93;;;;;;;11.52;86.61;99272.53;5053253;28;20212;-81
2024/03/03 11:21:34;;;;;;;50.67;34.23;;;;;;;11.64;87.02;99255.50;5053430;28;20203;-82
2024/03/03 11:24:05;;;;;;;51.27;37.03;;;;;;;11.79;85.25;99279.28;5054333;28;20265;-80
2024/03/03 11:26:41;;;;;;;57.87;37.30;;;;;;;11.82;86.22;99268.69;5052990;28;20579;-81